Time;durP1;ratioP1;P1;durP2;ratioP2;P2;SDS_P1;SDS_P2;PMS_P1;PMS_P2;Temp;Humidity;BMP_temperature;BMP_pressure;BME280_temperature;BME280_humidity;BME280_pressure;Samples;Min_cycle;Max_cycle;Signal;HPM_P1;HPM_P2
2023/03/18 06:01:28;;;;;;;;;5.00;5.00;;;;;-147.14;100.00;58812.66;5448766;23;47308;-61
2023/03/18 06:03:55;;;;;;;;;5.33;3.67;;;;;-147.14;100.00;58812.66;5045559;28;45522;-59
2023/03/18 06:06:20;;;;;;;;;6.00;4.00;;;;;-147.14;100.00;58812.66;5042608;28;45519;-59
2023/03/18 06:08:45;;;;;;;;;5.67;4.67;;;;;-147.14;100.00;58812.66;5035132;28;65426;-59
2023/03/18 06:11:11;;;;;;;;;8.00;6.33;;;;;-147.14;100.00;58812.66;5043677;28;46091;-59
2023/03/18 06:13:37;;;;;;;;;6.00;6.00;;;;;-147.14;100.00;58812.66;5022613;28;45416;-60
2023/03/18 06:16:03;;;;;;;;;8.00;7.67;;;;;-147.14;100.00;58812.66;5032812;28;45565;-61
2023/03/18 06:18:28;;;;;;;;;7.00;7.00;;;;;-147.14;100.00;58812.66;5050333;28;45317;-61
2023/03/18 06:20:55;;;;;;;;;7.67;7.00;;;;;-147.14;100.00;58812.66;5030187;28;45401;-61
2023/03/18 06:23:21;;;;;;;;;8.00;7.00;;;;;-147.14;100.00;58812.66;5045231;28;45751;-61
2023/03/18 06:25:48;;;;;;;;;7.00;7.00;;;;;-147.14;100.00;58812.66;5057489;28;45365;-61
2023/03/18 06:28:14;;;;;;;;;8.00;7.00;;;;;-147.14;100.00;58812.66;5053098;28;45514;-61
2023/03/18 06:30:39;;;;;;;;;9.00;9.00;;;;;-147.14;100.00;58812.66;5045555;28;45404;-61
2023/03/18 06:33:04;;;;;;;;;7.00;6.67;;;;;-147.14;100.00;58812.66;5048035;28;70144;-60
2023/03/18 06:35:30;;;;;;;;;9.00;9.00;;;;;-147.14;100.00;58812.66;5051523;28;59747;-61
2023/03/18 06:37:56;;;;;;;;;8.00;8.00;;;;;-147.14;100.00;58812.66;5041073;28;45594;-60
2023/03/18 06:40:23;;;;;;;;;6.67;6.67;;;;;-147.14;100.00;58812.66;5050435;28;46668;-61
2023/03/18 06:42:49;;;;;;;;;8.00;8.00;;;;;-147.14;100.00;58812.66;5056182;28;45475;-60
2023/03/18 06:45:14;;;;;;;;;5.67;5.67;;;;;-147.14;100.00;58812.66;5034328;28;45483;-60
2023/03/18 06:47:40;;;;;;;;;6.00;6.00;;;;;-147.14;100.00;58812.66;5056263;28;45466;-60
2023/03/18 06:50:05;;;;;;;;;6.00;6.00;;;;;-147.14;100.00;58812.66;5040866;28;45697;-61
2023/03/18 06:52:31;;;;;;;;;4.00;4.00;;;;;-147.14;100.00;58812.66;5038317;28;45377;-61
2023/03/18 06:54:56;;;;;;;;;3.00;3.00;;;;;-147.14;100.00;58812.66;5047396;28;45384;-61
2023/03/18 06:57:22;;;;;;;;;4.33;4.00;;;;;-147.14;100.00;58812.66;5057552;28;48998;-61
2023/03/18 06:59:47;;;;;;;;;4.67;4.00;;;;;-147.14;100.00;58812.66;5055106;28;45557;-60
2023/03/18 07:02:14;;;;;;;;;3.33;3.33;;;;;-147.14;100.00;58812.66;5046278;28;45644;-60
2023/03/18 07:04:39;;;;;;;;;4.00;4.00;;;;;-147.14;100.00;58812.66;5048382;28;45415;-61
2023/03/18 07:07:04;;;;;;;;;5.67;5.67;;;;;-147.14;100.00;58812.66;5025522;28;66465;-61
2023/03/18 07:09:32;;;;;;;;;8.00;8.00;;;;;-147.14;100.00;58812.66;5046332;28;45324;-61
2023/03/18 07:11:58;;;;;;;;;4.00;4.00;;;;;-147.14;100.00;58812.66;5044993;28;45467;-61
2023/03/18 07:14:23;;;;;;;;;4.67;3.00;;;;;-147.14;100.00;58812.66;5029329;28;45763;-61
2023/03/18 07:16:49;;;;;;;;;5.00;3.00;;;;;-147.14;100.00;58812.66;5052997;28;45373;-61
2023/03/18 07:19:14;;;;;;;;;5.67;4.33;;;;;-147.14;100.00;58812.66;5047822;28;46438;-61
2023/03/18 07:21:41;;;;;;;;;4.67;3.00;;;;;-147.14;100.00;58812.66;5018275;28;45874;-61
2023/03/18 07:24:07;;;;;;;;;2.67;2.67;;;;;-147.14;100.00;58812.66;5030105;28;45357;-61
2023/03/18 07:26:33;;;;;;;;;4.33;3.00;;;;;-147.14;100.00;58812.66;5045264;28;45221;-60
2023/03/18 07:28:58;;;;;;;;;3.00;3.00;;;;;-147.14;100.00;58812.66;5054134;28;69040;-61
2023/03/18 07:31:24;;;;;;;;;4.00;3.00;;;;;-147.14;100.00;58812.66;5039112;28;68669;-61
2023/03/18 07:33:49;;;;;;;;;2.67;2.67;;;;;-147.14;100.00;58812.66;5040233;28;45391;-61
2023/03/18 07:36:15;;;;;;;;;4.00;4.00;;;;;-147.14;100.00;58812.66;5034716;28;45317;-61
2023/03/18 07:38:41;;;;;;;;;3.33;2.00;;;;;-147.14;100.00;58812.66;5044467;28;52873;-61
2023/03/18 07:41:06;;;;;;;;;2.00;2.00;;;;;-147.14;100.00;58812.66;5027433;28;45556;-61
2023/03/18 07:43:31;;;;;;;;;3.00;3.00;;;;;-147.14;100.00;58812.66;5026503;28;45840;-61
2023/03/18 07:45:57;;;;;;;;;2.00;2.00;;;;;-147.14;100.00;58812.66;5048905;28;61120;-61
2023/03/18 07:48:23;;;;;;;;;4.00;2.67;;;;;-147.14;100.00;58812.66;5044178;28;46917;-61
2023/03/18 07:50:48;;;;;;;;;5.33;4.00;;;;;-147.14;100.00;58812.66;5041670;28;45280;-61
2023/03/18 07:53:14;;;;;;;;;3.33;2.67;;;;;-147.14;100.00;58812.66;5051367;28;50352;-61
2023/03/18 07:55:40;;;;;;;;;3.67;2.00;;;;;-147.14;100.00;58812.66;5030471;28;45330;-61
2023/03/18 07:58:07;;;;;;;;;2.00;2.00;;;;;-147.14;100.00;58812.66;5046759;28;45575;-60
2023/03/18 08:00:32;;;;;;;;;3.67;2.00;;;;;-147.14;100.00;58812.66;5025689;28;46017;-60
2023/03/18 08:02:58;;;;;;;;;2.33;2.00;;;;;-147.14;100.00;58812.66;5046372;28;45729;-60
2023/03/18 08:05:24;;;;;;;;;2.00;2.00;;;;;-147.14;100.00;58812.66;5032188;28;45737;-60
2023/03/18 08:07:49;;;;;;;;;3.33;2.00;;;;;-147.14;100.00;58812.66;5049493;28;46446;-60
2023/03/18 08:10:15;;;;;;;;;2.00;2.00;;;;;-147.14;100.00;58812.66;5051226;28;67549;-61
2023/03/18 08:12:41;;;;;;;;;2.00;1.00;;;;;-147.14;100.00;58812.66;5038783;28;45179;-60
2023/03/18 08:15:08;;;;;;;;;4.33;4.33;;;;;-147.14;100.00;58812.66;5019902;28;45604;-60
2023/03/18 08:17:33;;;;;;;;;3.00;2.00;;;;;-147.14;100.00;58812.66;5047491;28;46182;-62
2023/03/18 08:19:59;;;;;;;;;2.00;2.00;;;;;-147.14;100.00;58812.66;5058557;28;45666;-62
2023/03/18 08:22:24;;;;;;;;;4.00;4.00;;;;;-147.14;100.00;58812.66;5047327;28;45560;-62
2023/03/18 08:24:50;;;;;;;;;2.00;2.00;;;;;-147.14;100.00;58812.66;5048765;28;45408;-62
2023/03/18 08:27:16;;;;;;;;;3.00;3.00;;;;;-147.14;100.00;58812.66;5034642;28;46092;-61
2023/03/18 08:29:42;;;;;;;;;2.00;2.00;;;;;-147.14;100.00;58812.66;5025226;28;45522;-61
2023/03/18 08:32:08;;;;;;;;;3.67;2.33;;;;;-147.14;100.00;58812.66;5039264;28;45616;-61
2023/03/18 08:34:34;;;;;;;;;4.00;4.00;;;;;-147.14;100.00;58812.66;5042681;28;45552;-61
2023/03/18 08:37:00;;;;;;;;;2.67;2.67;;;;;-147.14;100.00;58812.66;5044685;28;46323;-61
2023/03/18 08:39:25;;;;;;;;;3.00;3.00;;;;;-147.14;100.00;58812.66;5020631;28;45525;-61
2023/03/18 08:41:51;;;;;;;;;3.00;3.00;;;;;-147.14;100.00;58812.66;5050066;28;45531;-61
2023/03/18 08:44:16;;;;;;;;;4.33;4.33;;;;;-147.14;100.00;58812.66;5044701;28;45361;-61
2023/03/18 08:46:42;;;;;;;;;4.00;3.00;;;;;-147.14;100.00;58812.66;5045746;28;46305;-60
2023/03/18 08:49:09;;;;;;;;;5.67;2.00;;;;;-147.14;100.00;58812.66;5025255;28;45789;-60
2023/03/18 08:51:34;;;;;;;;;4.00;2.67;;;;;-147.14;100.00;58812.66;5023257;28;46679;-58
2023/03/18 08:53:59;;;;;;;;;4.00;4.00;;;;;-147.14;100.00;58812.66;5037107;28;61334;-61
2023/03/18 08:56:26;;;;;;;;;2.00;2.00;;;;;-147.14;100.00;58812.66;5051094;28;62819;-61
2023/03/18 08:58:51;;;;;;;;;3.00;3.00;;;;;-147.14;100.00;58812.66;5037242;28;45503;-61
2023/03/18 09:01:18;;;;;;;;;4.00;2.00;;;;;-147.14;100.00;58812.66;5046896;28;63705;-62
2023/03/18 09:03:43;;;;;;;;;3.00;3.00;;;;;-147.14;100.00;58812.66;5048431;28;45295;-61
2023/03/18 09:06:09;;;;;;;;;2.50;2.00;;;;;-147.14;100.00;58812.66;5042617;28;46293;-61
2023/03/18 09:08:35;;;;;;;;;4.00;4.00;;;;;-147.14;100.00;58812.66;5023390;28;45429;-61
2023/03/18 09:11:01;;;;;;;;;3.33;1.67;;;;;-147.14;100.00;58812.66;5044446;28;45236;-62
2023/03/18 09:13:26;;;;;;;;;6.00;4.00;;;;;-147.14;100.00;58812.66;5014879;28;45831;-62
2023/03/18 09:15:52;;;;;;;;;4.00;2.00;;;;;-147.14;100.00;58812.66;5023630;28;45226;-62
2023/03/18 09:18:17;;;;;;;;;2.00;2.00;;;;;-147.14;100.00;58812.66;5046917;28;70185;-62
2023/03/18 09:20:44;;;;;;;;;3.00;3.00;;;;;-147.14;100.00;58812.66;5043029;28;46737;-61
2023/03/18 09:23:11;;;;;;;;;3.00;3.00;;;;;-147.14;100.00;58812.66;5039929;28;45891;-62
2023/03/18 09:25:37;;;;;;;;;3.33;3.33;;;;;-147.14;100.00;58812.66;5021466;28;46550;-62
2023/03/18 09:28:03;;;;;;;;;3.33;3.33;;;;;-147.14;100.00;58812.66;5031781;28;45318;-62
2023/03/18 09:30:28;;;;;;;;;2.33;1.67;;;;;-147.14;100.00;58812.66;5051337;28;45578;-62
2023/03/18 09:32:55;;;;;;;;;4.00;2.00;;;;;-147.14;100.00;58812.66;5040038;28;45594;-62
2023/03/18 09:35:20;;;;;;;;;3.33;0.67;;;;;-147.14;100.00;58812.66;5034272;28;46086;-62
2023/03/18 09:37:47;;;;;;;;;2.33;2.00;;;;;-147.14;100.00;58812.66;5051673;28;45615;-61
2023/03/18 09:40:22;;;;;;;;;1.00;1.00;;;;;-147.14;100.00;58812.66;5019836;28;45373;-63
2023/03/18 09:43:15;;;;;;;;;1.00;1.00;;;;;-147.14;100.00;58812.66;5031645;28;45421;-63
2023/03/18 09:45:46;;;;;;;;;2.00;2.00;;;;;-147.14;100.00;58812.66;5038032;28;45275;-63
2023/03/18 09:48:49;;;;;;;;;1.33;1.33;;;;;-147.14;100.00;58812.66;5043620;28;45556;-63
2023/03/18 09:51:27;;;;;;;;;3.00;2.00;;;;;-147.14;100.00;58812.66;5038289;28;45684;-63
2023/03/18 09:53:59;;;;;;;;;3.00;2.00;;;;;-147.14;100.00;58812.66;5038211;28;45692;-62
2023/03/18 09:56:28;;;;;;;;;0.25;0.25;;;;;-147.14;100.00;58812.66;5029803;28;45501;-63
2023/03/18 09:59:02;;;;;;;;;2.00;2.00;;;;;-147.14;100.00;58812.66;5023183;28;45392;-63
2023/03/18 10:01:29;;;;;;;;;3.25;2.00;;;;;-147.14;100.00;58812.66;5034201;28;45416;-63
2023/03/18 10:04:23;;;;;;;;;1.50;1.50;;;;;-147.14;100.00;58812.66;5019128;28;45285;-64
2023/03/18 10:06:53;;;;;;;;;1.00;1.00;;;;;-147.14;100.00;58812.66;5028231;28;46288;-64
2023/03/18 10:09:27;;;;;;;;;2.25;1.50;;;;;-147.14;100.00;58812.66;5035238;28;45468;-64
2023/03/18 10:11:59;;;;;;;;;2.75;2.75;;;;;-147.14;100.00;58812.66;5050129;28;45292;-62
2023/03/18 10:14:45;;;;;;;;;2.00;2.00;;;;;-147.14;100.00;58812.66;5038355;28;45252;-63
2023/03/18 10:17:34;;;;;;;;;2.50;2.00;;;;;-147.14;100.00;58812.66;5027121;28;45492;-59
2023/03/18 10:20:03;;;;;;;;;1.00;1.00;;;;;-147.14;100.00;58812.66;5018070;28;45621;-60
2023/03/18 10:22:47;;;;;;;;;0.50;0.50;;;;;-147.14;100.00;58812.66;5025294;28;45337;-60
2023/03/18 10:25:35;;;;;;;;;3.50;2.50;;;;;-147.14;100.00;58812.66;5047465;28;45433;-60
2023/03/18 10:28:26;;;;;;;;;1.00;1.00;;;;;-147.14;100.00;58812.66;5038047;28;47625;-60
2023/03/18 10:31:19;;;;;;;;;3.00;3.00;;;;;-147.14;100.00;58812.66;5053320;28;45367;-61
2023/03/18 10:34:12;;;;;;;;;1.00;1.00;;;;;-147.14;100.00;58812.66;5033031;28;45604;-59
2023/03/18 10:37:05;;;;;;;;;1.00;1.00;;;;;-147.14;100.00;58812.66;5048508;28;45477;-59
2023/03/18 10:39:32;;;;;;;;;1.00;1.00;;;;;-147.14;100.00;58812.66;5054742;28;45618;-59
2023/03/18 10:42:01;;;;;;;;;2.00;1.50;;;;;-147.14;100.00;58812.66;5041478;28;45401;-59
2023/03/18 10:44:28;;;;;;;;;0.00;0.00;;;;;-147.14;100.00;58812.66;5056984;28;45302;-65
2023/03/18 10:47:08;;;;;;;;;1.00;1.00;;;;;-147.14;100.00;58812.66;5043357;28;45963;-59
2023/03/18 10:49:41;;;;;;;;;1.25;1.00;;;;;-147.14;100.00;58812.66;5036948;28;45929;-63
2023/03/18 10:52:14;;;;;;;;;1.25;1.00;;;;;-147.14;100.00;58812.66;5025858;28;45361;-64
2023/03/18 10:54:44;;;;;;;;;1.00;1.00;;;;;-147.14;100.00;58812.66;5034604;28;45384;-59
2023/03/18 10:57:14;;;;;;;;;1.00;1.00;;;;;-147.14;100.00;58812.66;5040119;28;45394;-60
2023/03/18 10:59:43;;;;;;;;;0.75;0.75;;;;;-147.14;100.00;58812.66;5040712;28;45325;-59
2023/03/18 11:02:14;;;;;;;;;1.00;1.00;;;;;-147.14;100.00;58812.66;5055680;28;45366;-60
2023/03/18 11:04:47;;;;;;;;;2.00;0.50;;;;;-147.14;100.00;58812.66;5032795;28;45362;-62
2023/03/18 11:07:17;;;;;;;;;1.00;1.00;;;;;-147.14;100.00;58812.66;5046100;28;45465;-67
2023/03/18 11:09:43;;;;;;;;;3.00;2.00;;;;;-147.14;100.00;58812.66;5051918;28;47104;-61
2023/03/18 11:12:26;;;;;;;;;0.25;0.25;;;;;-147.14;100.00;58812.66;5036168;28;45450;-60
2023/03/18 11:14:52;;;;;;;;;2.75;1.00;;;;;-147.14;100.00;58812.66;5031048;28;45289;-68
2023/03/18 11:17:21;;;;;;;;;1.00;1.00;;;;;-147.14;100.00;58812.66;5050835;28;45470;-59
2023/03/18 11:19:59;;;;;;;;;0.25;0.25;;;;;-147.14;100.00;58812.66;5044458;28;47281;-59
2023/03/18 11:22:26;;;;;;;;;0.25;0.00;;;;;-147.14;100.00;58812.66;5045578;28;45420;-59
2023/03/18 11:25:10;;;;;;;;;1.00;1.00;;;;;-147.14;100.00;58812.66;5042913;28;45366;-59
2023/03/18 11:27:41;;;;;;;;;1.75;0.50;;;;;-147.14;100.00;58812.66;5047986;28;45344;-58
2023/03/18 11:30:14;;;;;;;;;2.00;1.67;;;;;-147.14;100.00;58812.66;5027293;28;45365;-59
2023/03/18 11:32:57;;;;;;;;;1.50;1.25;;;;;-147.14;100.00;58812.66;5043016;28;45752;-59
2023/03/18 11:35:39;;;;;;;;;2.50;2.50;;;;;-147.14;100.00;58812.66;5025688;28;45393;-57
2023/03/18 11:38:06;;;;;;;;;1.25;1.25;;;;;-147.14;100.00;58812.66;5017881;28;45583;-64
2023/03/18 11:40:32;;;;;;;;;1.75;1.75;;;;;-147.14;100.00;58812.66;5026566;28;45743;-60
2023/03/18 11:42:59;;;;;;;;;0.50;0.50;;;;;-147.14;100.00;58812.66;5019910;28;45265;-60
2023/03/18 11:45:42;;;;;;;;;0.00;0.00;;;;;-147.14;100.00;58812.66;5031698;28;45416;-59
2023/03/18 11:48:14;;;;;;;;;0.00;0.00;;;;;-147.14;100.00;58812.66;5034782;28;45330;-60
2023/03/18 11:50:49;;;;;;;;;1.00;1.00;;;;;-147.14;100.00;58812.66;5040210;28;46153;-60
2023/03/18 11:53:46;;;;;;;;;1.00;1.00;;;;;-147.14;100.00;58812.66;5025479;28;45330;-56
2023/03/18 11:56:34;;;;;;;;;2.25;1.25;;;;;-147.14;100.00;58812.66;5024541;28;46337;-56
2023/03/18 11:59:18;;;;;;;;;2.00;2.00;;;;;-147.14;100.00;58812.66;5040750;28;45533;-59
2023/03/18 12:02:21;;;;;;;;;1.00;1.00;;;;;-147.14;100.00;58812.66;5053911;28;45497;-56
2023/03/18 12:05:15;;;;;;;;;2.67;1.00;;;;;-147.14;100.00;58812.66;5046723;28;45455;-53
2023/03/18 12:07:51;;;;;;;;;1.00;1.00;;;;;-147.14;100.00;58812.66;5050365;28;45301;-56
2023/03/18 12:10:23;;;;;;;;;3.00;1.67;;;;;-147.14;100.00;58812.66;5038136;28;45594;-58
2023/03/18 12:13:06;;;;;;;;;1.00;1.00;;;;;-147.14;100.00;58812.66;5047076;28;45372;-59
2023/03/18 12:15:41;;;;;;;;;4.00;2.67;;;;;-147.14;100.00;58812.66;5016700;28;45363;-59
2023/03/18 12:18:19;;;;;;;;;2.33;1.00;;;;;-147.14;100.00;58812.66;5046453;28;45459;-59
2023/03/18 12:20:49;;;;;;;;;1.00;0.75;;;;;-147.14;100.00;58812.66;5055749;28;45424;-54
2023/03/18 12:23:14;;;;;;;;;1.25;1.25;;;;;-147.14;100.00;58812.66;5024224;28;46413;-59
2023/03/18 12:26:02;;;;;;;;;1.00;0.00;;;;;-147.14;100.00;58812.66;5046462;28;45387;-53
2023/03/18 12:28:35;;;;;;;;;1.00;1.00;;;;;-147.14;100.00;58812.66;5031350;28;46574;-56
2023/03/18 12:31:22;;;;;;;;;1.00;1.00;;;;;-147.14;100.00;58812.66;5049401;28;45366;-54
2023/03/18 12:33:55;;;;;;;;;3.67;1.00;;;;;-147.14;100.00;58812.66;5048248;28;46765;-56
2023/03/18 12:36:33;;;;;;;;;2.00;2.00;;;;;-147.14;100.00;58812.66;5028146;28;45878;-53
2023/03/18 12:39:15;;;;;;;;;1.00;1.00;;;;;-147.14;100.00;58812.66;5043169;28;45476;-59
2023/03/18 12:42:16;;;;;;;;;1.00;1.00;;;;;-147.14;100.00;58812.66;5027458;28;45509;-59
2023/03/18 12:44:47;;;;;;;;;2.00;0.33;;;;;-147.14;100.00;58812.66;5039691;28;46412;-61
2023/03/18 12:47:19;;;;;;;;;0.50;0.50;;;;;-147.14;100.00;58812.66;5045200;28;45764;-61
2023/03/18 12:49:59;;;;;;;;;3.00;0.25;;;;;-147.14;100.00;58812.66;5059123;28;45434;-60
2023/03/18 12:52:29;;;;;;;;;1.75;0.00;;;;;-147.14;100.00;58812.66;5038071;28;45596;-59
2023/03/18 12:55:24;;;;;;;;;0.50;0.50;;;;;-147.14;100.00;58812.66;5020564;28;45603;-61
2023/03/18 12:58:13;;;;;;;;;2.00;1.00;;;;;-147.14;100.00;58812.66;5022389;28;45267;-60
2023/03/18 13:00:46;;;;;;;;;1.00;1.00;;;;;-147.14;100.00;58812.66;5027208;28;45360;-60
2023/03/18 13:03:31;;;;;;;;;0.00;0.00;;;;;-147.14;100.00;58812.66;5047955;28;45668;-61
2023/03/18 13:06:18;;;;;;;;;0.00;0.00;;;;;-147.14;100.00;58812.66;5026355;28;45556;-60
2023/03/18 13:08:58;;;;;;;;;2.00;0.67;;;;;-147.14;100.00;58812.66;5047732;28;45302;-61
2023/03/18 13:11:57;;;;;;;;;0.33;0.33;;;;;-147.14;100.00;58812.66;5048686;28;45391;-62
2023/03/18 13:14:49;;;;;;;;;0.25;0.00;;;;;-147.14;100.00;58812.66;5050446;28;45559;-59
2023/03/18 13:17:29;;;;;;;;;1.00;1.00;;;;;-147.14;100.00;58812.66;5044829;28;46709;-61
2023/03/18 13:20:03;;;;;;;;;0.00;0.00;;;;;-147.14;100.00;58812.66;5018818;28;45447;-61
2023/03/18 13:22:41;;;;;;;;;2.00;0.00;;;;;-147.14;100.00;58812.66;5020223;28;46526;-61
2023/03/18 13:25:07;;;;;;;;;0.00;0.00;;;;;-147.14;100.00;58812.66;5048879;28;45572;-61
2023/03/18 13:28:12;;;;;;;;;0.00;0.00;;;;;-147.14;100.00;58812.66;5057236;28;47208;-61
2023/03/18 13:30:59;;;;;;;;;0.00;0.00;;;;;-147.14;100.00;58812.66;4987977;28;45418;-60
2023/03/18 13:33:27;;;;;;;;;0.00;0.00;;;;;-147.14;100.00;58812.66;5031716;28;45406;-60
2023/03/18 13:36:29;;;;;;;;;1.00;1.00;;;;;-147.14;100.00;58812.66;5039310;28;45373;-61
2023/03/18 13:39:01;;;;;;;;;0.00;0.00;;;;;-147.14;100.00;58812.66;5046051;28;45995;-60
2023/03/18 13:41:57;;;;;;;;;2.00;2.00;;;;;-147.14;100.00;58812.66;5042172;28;45340;-60
2023/03/18 13:44:41;;;;;;;;;0.00;0.00;;;;;-147.14;100.00;58812.66;5056769;28;45286;-60
2023/03/18 13:47:07;;;;;;;;;0.00;0.00;;;;;-147.14;100.00;58812.66;5038959;28;45649;-61
2023/03/18 13:49:36;;;;;;;;;1.33;0.00;;;;;-147.14;100.00;58812.66;5038150;28;45309;-60
2023/03/18 13:52:03;;;;;;;;;0.67;0.67;;;;;-147.14;100.00;58812.66;5028473;28;45761;-60
2023/03/18 13:54:37;;;;;;;;;2.33;0.00;;;;;-147.14;100.00;58812.66;5048390;28;45375;-60
2023/03/18 13:57:16;;;;;;;;;0.33;0.33;;;;;-147.14;100.00;58812.66;5050473;28;45333;-61
2023/03/18 13:59:43;;;;;;;;;1.00;1.00;;;;;-147.14;100.00;58812.66;5056637;28;46294;-60
2023/03/18 14:02:29;;;;;;;;;0.00;0.00;;;;;-147.14;100.00;58812.66;5049394;28;45609;-60
2023/03/18 14:04:57;;;;;;;;;0.00;0.00;;;;;-147.14;100.00;58812.66;5032727;28;45670;-61
2023/03/18 14:07:23;;;;;;;;;0.00;0.00;;;;;-147.14;100.00;58812.66;5031162;28;45578;-60
2023/03/18 14:10:03;;;;;;;;;0.00;0.00;;;;;-147.14;100.00;58812.66;5039508;28;45600;-60
2023/03/18 14:12:28;;;;;;;;;0.00;0.00;;;;;-147.14;100.00;58812.66;5021123;28;45288;-61
2023/03/18 14:14:53;;;;;;;;;0.00;0.00;;;;;-147.14;100.00;58812.66;5038876;28;45480;-60
2023/03/18 14:17:33;;;;;;;;;0.00;0.00;;;;;-147.14;100.00;58812.66;5039926;28;45614;-60
2023/03/18 14:20:14;;;;;;;;;3.00;1.67;;;;;-147.14;100.00;58812.66;5036800;28;45421;-59
2023/03/18 14:22:41;;;;;;;;;0.00;0.00;;;;;-147.14;100.00;58812.66;5048542;28;45676;-60
2023/03/18 14:25:12;;;;;;;;;0.00;0.00;;;;;-147.14;100.00;58812.66;5027217;28;45476;-60
2023/03/18 14:27:53;;;;;;;;;0.33;0.00;;;;;-147.14;100.00;58812.66;5050303;28;45636;-60
2023/03/18 14:30:28;;;;;;;;;1.00;0.33;;;;;-147.14;100.00;58812.66;5047397;28;45388;-60
2023/03/18 14:33:16;;;;;;;;;1.00;0.00;;;;;-147.14;100.00;58812.66;5031565;28;45584;-60
2023/03/18 14:35:53;;;;;;;;;1.00;1.00;;;;;-147.14;100.00;58812.66;5048181;28;45406;-60
2023/03/18 14:38:41;;;;;;;;;1.33;0.00;;;;;-147.14;100.00;58812.66;5026130;28;45513;-60
2023/03/18 14:41:19;;;;;;;;;1.33;0.00;;;;;-147.14;100.00;58812.66;5034443;28;45393;-60
2023/03/18 14:44:09;;;;;;;;;1.00;1.00;;;;;-147.14;100.00;58812.66;5048416;28;45283;-59
2023/03/18 14:46:41;;;;;;;;;0.33;0.00;;;;;-147.14;100.00;58812.66;5049159;28;46165;-60
2023/03/18 14:49:45;;;;;;;;;0.33;0.33;;;;;-147.14;100.00;58812.66;5023142;28;45483;-59
2023/03/18 14:52:28;;;;;;;;;2.00;1.00;;;;;-147.14;100.00;58812.66;5041566;28;46468;-61
2023/03/18 14:54:56;;;;;;;;;1.00;1.00;;;;;-147.14;100.00;58812.66;5035880;28;45449;-60
2023/03/18 14:57:22;;;;;;;;;1.00;0.00;;;;;-147.14;100.00;58812.66;5024816;28;45517;-60
2023/03/18 14:59:47;;;;;;;;;1.00;1.00;;;;;-147.14;100.00;58812.66;5034608;28;45415;-61
2023/03/18 15:02:22;;;;;;;;;2.33;1.00;;;;;-147.14;100.00;58812.66;5054173;28;45888;-61
2023/03/18 15:04:53;;;;;;;;;0.67;0.67;;;;;-147.14;100.00;58812.66;5033565;28;45582;-61
2023/03/18 15:07:20;;;;;;;;;0.67;0.00;;;;;-147.14;100.00;58812.66;5037556;28;45557;-61
2023/03/18 15:09:47;;;;;;;;;0.00;0.00;;;;;-147.14;100.00;58812.66;5032514;28;45275;-61
2023/03/18 15:12:18;;;;;;;;;0.00;0.00;;;;;-147.14;100.00;58812.66;5037360;28;45372;-61
2023/03/18 15:14:43;;;;;;;;;0.00;0.00;;;;;-147.14;100.00;58812.66;5049218;28;45431;-61
2023/03/18 15:17:15;;;;;;;;;0.67;0.67;;;;;-147.14;100.00;58812.66;5047015;28;45409;-61
2023/03/18 15:19:41;;;;;;;;;0.00;0.00;;;;;-147.14;100.00;58812.66;5022863;28;45459;-61
2023/03/18 15:22:08;;;;;;;;;4.00;0.00;;;;;-147.14;100.00;58812.66;5052769;28;45397;-61
2023/03/18 15:24:34;;;;;;;;;2.00;0.33;;;;;-147.14;100.00;58812.66;5051636;28;45300;-61
2023/03/18 15:27:02;;;;;;;;;1.00;1.00;;;;;-147.14;100.00;58812.66;5034670;28;45344;-61
2023/03/18 15:29:33;;;;;;;;;1.00;1.00;;;;;-147.14;100.00;58812.66;5040818;28;45305;-61
2023/03/18 15:32:07;;;;;;;;;0.33;0.33;;;;;-147.14;100.00;58812.66;5022691;28;46073;-61
2023/03/18 15:34:34;;;;;;;;;1.00;1.00;;;;;-147.14;100.00;58812.66;5053691;28;45317;-61
2023/03/18 15:37:03;;;;;;;;;0.00;0.00;;;;;-147.14;100.00;58812.66;5051329;28;45332;-61
2023/03/18 15:39:34;;;;;;;;;0.00;0.00;;;;;-147.14;100.00;58812.66;5042121;28;45282;-60
2023/03/18 15:42:01;;;;;;;;;0.00;0.00;;;;;-147.14;100.00;58812.66;5023920;28;46327;-61
2023/03/18 15:44:33;;;;;;;;;2.00;0.33;;;;;-147.14;100.00;58812.66;5039292;28;45380;-61
2023/03/18 15:47:12;;;;;;;;;2.33;1.00;;;;;-147.14;100.00;58812.66;5020621;28;45326;-61
2023/03/18 15:49:57;;;;;;;;;1.00;1.00;;;;;-147.14;100.00;58812.66;5041721;28;45588;-61
2023/03/18 15:52:35;;;;;;;;;1.00;1.00;;;;;-147.14;100.00;58812.66;5033391;28;47213;-61
2023/03/18 15:55:01;;;;;;;;;1.00;1.00;;;;;-147.14;100.00;58812.66;5028411;28;45470;-59
2023/03/18 15:57:39;;;;;;;;;2.00;1.00;;;;;-147.14;100.00;58812.66;5027331;28;45463;-61
2023/03/18 16:00:09;;;;;;;;;2.33;2.00;;;;;-147.14;100.00;58812.66;5020337;28;45456;-59
2023/03/18 16:02:35;;;;;;;;;1.00;1.00;;;;;-147.14;100.00;58812.66;5030135;28;45933;-61
2023/03/18 16:05:16;;;;;;;;;2.00;1.00;;;;;-147.14;100.00;58812.66;5026426;28;45655;-60
2023/03/18 16:07:42;;;;;;;;;1.00;1.00;;;;;-147.14;100.00;58812.66;5047617;28;45309;-61
2023/03/18 16:10:08;;;;;;;;;2.33;2.33;;;;;-147.14;100.00;58812.66;5044597;28;45341;-61
2023/03/18 16:12:35;;;;;;;;;2.00;1.00;;;;;-147.14;100.00;58812.66;5028633;28;46128;-61
2023/03/18 16:15:03;;;;;;;;;2.67;2.67;;;;;-147.14;100.00;58812.66;5025178;28;45888;-61
2023/03/18 16:17:29;;;;;;;;;2.00;2.00;;;;;-147.14;100.00;58812.66;5037847;28;45475;-61
2023/03/18 16:19:56;;;;;;;;;2.00;2.00;;;;;-147.14;100.00;58812.66;5049744;28;45377;-61
2023/03/18 16:22:22;;;;;;;;;2.00;2.00;;;;;-147.14;100.00;58812.66;5029830;28;47145;-60
2023/03/18 16:24:47;;;;;;;;;2.00;1.00;;;;;-147.14;100.00;58812.66;5048092;28;45321;-60
2023/03/18 16:27:41;;;;;;;;;2.33;2.33;;;;;-147.14;100.00;58812.66;5042109;28;45398;-60
2023/03/18 16:30:22;;;;;;;;;2.67;2.67;;;;;-147.14;100.00;58812.66;5040156;28;45399;-60
2023/03/18 16:32:48;;;;;;;;;5.67;5.00;;;;;-147.14;100.00;58812.66;5048726;28;46734;-60
2023/03/18 16:35:15;;;;;;;;;2.00;2.00;;;;;-147.14;100.00;58812.66;5039972;28;45495;-60
2023/03/18 16:37:41;;;;;;;;;4.00;3.00;;;;;-147.14;100.00;58812.66;5047495;28;45364;-60
2023/03/18 16:40:20;;;;;;;;;3.00;3.00;;;;;-147.14;100.00;58812.66;5027870;28;45286;-60
2023/03/18 16:42:49;;;;;;;;;4.00;4.00;;;;;-147.14;100.00;58812.66;5039788;28;45495;-61
2023/03/18 16:45:26;;;;;;;;;2.33;1.67;;;;;-147.14;100.00;58812.66;5021761;28;45345;-61
2023/03/18 16:47:55;;;;;;;;;4.00;2.00;;;;;-147.14;100.00;58812.66;5038819;28;45360;-61
2023/03/18 16:50:23;;;;;;;;;3.33;3.00;;;;;-147.14;100.00;58812.66;5047080;28;45576;-60
2023/03/18 16:52:49;;;;;;;;;3.00;3.00;;;;;-147.14;100.00;58812.66;5028447;28;46313;-60
2023/03/18 16:55:17;;;;;;;;;3.00;2.33;;;;;-147.14;100.00;58812.66;5043187;28;45292;-61
2023/03/18 16:57:54;;;;;;;;;2.33;2.00;;;;;-147.14;100.00;58812.66;5048346;28;45431;-60
2023/03/18 17:00:30;;;;;;;;;2.33;2.00;;;;;-147.14;100.00;58812.66;5021297;28;45464;-60
2023/03/18 17:02:57;;;;;;;;;1.00;1.00;;;;;-147.14;100.00;58812.66;5041701;28;45921;-60
2023/03/18 17:05:23;;;;;;;;;1.00;1.00;;;;;-147.14;100.00;58812.66;5022719;28;45534;-60
2023/03/18 17:07:49;;;;;;;;;1.00;1.00;;;;;-147.14;100.00;58812.66;5040214;28;55592;-60
2023/03/18 17:10:18;;;;;;;;;1.67;1.67;;;;;-147.14;100.00;58812.66;5051407;28;45439;-60
2023/03/18 17:12:47;;;;;;;;;1.00;1.00;;;;;-147.14;100.00;58812.66;5037511;28;46413;-60
2023/03/18 17:15:15;;;;;;;;;1.00;1.00;;;;;-147.14;100.00;58812.66;5046477;28;45445;-60
2023/03/18 17:17:41;;;;;;;;;3.67;2.00;;;;;-147.14;100.00;58812.66;5026620;28;45447;-60
2023/03/18 17:20:19;;;;;;;;;1.00;1.00;;;;;-147.14;100.00;58812.66;5030323;28;57320;-60
2023/03/18 17:22:45;;;;;;;;;2.33;1.67;;;;;-147.14;100.00;58812.66;5020639;28;47040;-60
2023/03/18 17:25:10;;;;;;;;;1.00;1.00;;;;;-147.14;100.00;58812.66;5020119;28;45381;-60
2023/03/18 17:27:43;;;;;;;;;0.00;0.00;;;;;-147.14;100.00;58812.66;5044794;28;45548;-60
2023/03/18 17:30:21;;;;;;;;;1.00;1.00;;;;;-147.14;100.00;58812.66;5032362;28;45652;-61
2023/03/18 17:32:47;;;;;;;;;2.00;0.00;;;;;-147.14;100.00;58812.66;5042613;28;45509;-61